Time;durP1;ratioP1;P1;durP2;ratioP2;P2;SDS_P1;SDS_P2;PMS_P1;PMS_P2;Temp;Humidity;BMP_temperature;BMP_pressure;BME280_temperature;BME280_humidity;BME280_pressure;Samples;Min_cycle;Max_cycle;Signal;HPM_P1;HPM_P2
2023/08/16 00:01:03;;;;;;;14.02;4.32;;;;;;;19.72;95.09;101574.19;5019330;28;20615;-70
2023/08/16 00:03:29;;;;;;;5.68;2.38;;;;;;;19.72;95.46;101568.94;5004269;28;20037;-69
2023/08/16 00:05:54;;;;;;;10.48;3.38;;;;;;;19.72;95.56;101571.56;5016838;28;20523;-69
2023/08/16 00:08:20;;;;;;;6.72;3.10;;;;;;;19.72;95.64;101568.94;5004394;28;20045;-69
2023/08/16 00:10:45;;;;;;;8.20;3.78;;;;;;;19.68;95.55;101568.53;5016689;28;20037;-70
2023/08/16 00:13:11;;;;;;;7.68;3.72;;;;;;;19.60;95.51;101572.13;5019048;28;20048;-69
2023/08/16 00:15:36;;;;;;;6.00;3.10;;;;;;;19.56;95.34;101568.28;5018279;28;20534;-69
2023/08/16 00:18:02;;;;;;;5.60;3.03;;;;;;;19.49;95.65;101566.63;5021298;28;20040;-70
2023/08/16 00:20:27;;;;;;;5.28;2.92;;;;;;;19.48;95.87;101567.63;5001528;28;20491;-69
2023/08/16 00:22:54;;;;;;;7.32;3.10;;;;;;;19.47;95.87;101572.09;5021572;28;20048;-70
2023/08/16 00:25:20;;;;;;;10.02;3.85;;;;;;;19.49;95.76;101569.28;5019524;28;20037;-69
2023/08/16 00:27:45;;;;;;;7.90;2.65;;;;;;;19.51;95.66;101570.69;5022792;28;20523;-70
2023/08/16 00:30:11;;;;;;;10.07;3.67;;;;;;;19.50;94.88;101574.34;5020175;28;20471;-71
2023/08/16 00:32:37;;;;;;;9.90;3.00;;;;;;;19.47;94.90;101571.28;5021005;28;20042;-70
2023/08/16 00:35:04;;;;;;;6.25;2.65;;;;;;;19.51;95.69;101572.50;5004984;28;20045;-70
2023/08/16 00:37:29;;;;;;;5.93;2.83;;;;;;;19.50;96.00;101569.09;5020174;28;20061;-70
2023/08/16 00:39:56;;;;;;;3.67;2.50;;;;;;;19.51;95.90;101568.06;5020021;28;20044;-70
2023/08/16 00:42:21;;;;;;;4.70;2.70;;;;;;;19.54;95.78;101572.94;5006386;28;20124;-70
2023/08/16 00:44:47;;;;;;;11.23;3.38;;;;;;;19.47;95.71;101568.66;5004603;28;20179;-69
2023/08/16 00:47:13;;;;;;;7.50;3.47;;;;;;;19.44;96.36;101567.25;5016845;28;20034;-70
2023/08/16 00:49:40;;;;;;;12.57;3.92;;;;;;;19.40;95.96;101560.72;5022309;28;20029;-70
2023/08/16 00:52:06;;;;;;;6.97;2.70;;;;;;;19.40;96.32;101566.81;5017917;28;20038;-70
2023/08/16 00:54:32;;;;;;;5.32;2.30;;;;;;;19.41;96.45;101571.06;5021047;28;20133;-70
2023/08/16 00:56:58;;;;;;;7.10;3.20;;;;;;;19.38;96.65;101576.72;5020602;28;20128;-70
2023/08/16 00:59:26;;;;;;;7.78;3.47;;;;;;;19.35;96.95;101573.69;5022404;28;20495;-70
2023/08/16 01:01:51;;;;;;;10.05;3.00;;;;;;;19.31;97.18;101570.63;5019094;28;20049;-70
2023/08/16 01:04:17;;;;;;;8.73;2.83;;;;;;;19.31;97.03;101569.78;5017708;28;20056;-70
2023/08/16 01:06:43;;;;;;;6.70;3.30;;;;;;;19.28;97.21;101572.81;5020404;28;20038;-69
2023/08/16 01:09:09;;;;;;;9.10;3.97;;;;;;;19.23;97.33;101561.09;5036405;28;20048;-70
2023/08/16 01:11:54;;;;;;;9.27;3.78;;;;;;;19.16;97.97;101569.94;5033691;28;20055;-70
2023/08/16 01:14:29;;;;;;;7.07;3.10;;;;;;;19.14;98.26;101564.06;5027526;28;20028;-70
2023/08/16 01:16:57;;;;;;;7.82;3.50;;;;;;;19.12;98.48;101560.78;5022376;28;20748;-70
2023/08/16 01:19:33;;;;;;;8.52;3.75;;;;;;;19.09;98.95;101556.75;5024177;28;20383;-70
2023/08/16 01:22:37;;;;;;;7.47;2.78;;;;;;;19.11;99.01;101561.81;5008634;28;20033;-70
2023/08/16 01:25:30;;;;;;;8.32;3.10;;;;;;;19.14;99.31;101561.44;5026548;28;20041;-70
2023/08/16 01:27:57;;;;;;;8.80;3.15;;;;;;;19.13;98.91;101557.19;5025110;28;20049;-70
2023/08/16 01:30:23;;;;;;;4.70;2.90;;;;;;;19.13;99.03;101549.28;5022747;28;20041;-70
2023/08/16 01:32:49;;;;;;;8.88;3.30;;;;;;;19.10;98.84;101550.50;5008538;28;20033;-70
2023/08/16 01:35:15;;;;;;;11.18;3.40;;;;;;;19.08;98.96;101555.16;5023366;28;20022;-70
2023/08/16 01:37:42;;;;;;;6.55;2.90;;;;;;;19.09;98.78;101559.38;5007911;28;20079;-70
2023/08/16 01:40:10;;;;;;;6.05;3.25;;;;;;;19.10;98.76;101557.56;5024561;28;20107;-71
2023/08/16 01:42:42;;;;;;;10.02;3.30;;;;;;;19.11;98.74;101562.63;5025937;28;20026;-70
2023/08/16 01:45:09;;;;;;;6.25;3.25;;;;;;;19.09;98.78;101553.31;5037508;28;20111;-71
2023/08/16 01:47:36;;;;;;;7.53;3.50;;;;;;;19.06;98.84;101560.59;5025551;28;20045;-70
2023/08/16 01:50:03;;;;;;;11.93;5.35;;;;;;;18.98;99.18;101562.56;5024248;28;20037;-70
2023/08/16 01:52:29;;;;;;;7.07;3.63;;;;;;;18.92;99.58;101569.38;5022922;28;20586;-70
2023/08/16 01:54:54;;;;;;;14.10;4.35;;;;;;;18.89;100.00;101568.97;5016497;28;20037;-70
2023/08/16 01:57:20;;;;;;;8.95;3.85;;;;;;;18.88;100.00;101569.97;5009631;28;20042;-70
2023/08/16 01:59:46;;;;;;;5.78;3.40;;;;;;;18.84;100.00;101565.09;5029153;28;20037;-69
2023/08/16 02:02:12;;;;;;;7.82;3.80;;;;;;;18.84;100.00;101567.72;5023370;28;20038;-70
2023/08/16 02:04:37;;;;;;;5.80;3.55;;;;;;;18.84;100.00;101562.47;5010531;28;20029;-70
2023/08/16 02:07:02;;;;;;;8.20;3.53;;;;;;;18.86;100.00;101565.72;5022544;28;20507;-70
2023/08/16 02:09:28;;;;;;;7.00;3.72;;;;;;;18.89;99.94;101564.50;5023164;28;20033;-70
2023/08/16 02:11:53;;;;;;;7.38;3.63;;;;;;;18.91;99.76;101566.94;5021984;28;20040;-69
2023/08/16 02:14:19;;;;;;;5.88;3.30;;;;;;;18.93;99.35;101570.19;5022655;28;20049;-69
2023/08/16 02:16:45;;;;;;;5.78;3.85;;;;;;;18.93;98.97;101562.31;5016092;28;20045;-69
2023/08/16 02:19:10;;;;;;;10.73;3.80;;;;;;;18.91;98.99;101559.06;5022654;28;20044;-69
2023/08/16 02:21:36;;;;;;;5.88;3.33;;;;;;;18.91;99.10;101559.06;5020064;28;20083;-69
2023/08/16 02:24:03;;;;;;;5.15;3.03;;;;;;;18.90;99.20;101565.34;5020984;28;20026;-70
2023/08/16 02:26:28;;;;;;;6.95;4.40;;;;;;;18.88;98.97;101562.09;5023198;28;20048;-69
2023/08/16 02:28:56;;;;;;;9.18;3.40;;;;;;;18.85;98.95;101572.00;5020889;28;20033;-69
2023/08/16 02:31:22;;;;;;;8.38;3.42;;;;;;;18.79;99.44;101570.06;5034588;28;20059;-69
2023/08/16 02:33:49;;;;;;;7.97;3.90;;;;;;;18.66;100.00;101572.59;5005635;28;20029;-69
2023/08/16 02:36:14;;;;;;;6.72;3.17;;;;;;;18.56;100.00;101566.88;5022202;28;20088;-70
2023/08/16 02:38:40;;;;;;;7.93;3.53;;;;;;;18.45;100.00;101566.38;5020054;28;20036;-69
2023/08/16 02:41:05;;;;;;;9.35;3.58;;;;;;;18.36;100.00;101572.75;5022094;28;20037;-70
2023/08/16 02:43:31;;;;;;;6.22;3.38;;;;;;;18.33;100.00;101577.59;5021648;28;20052;-69
2023/08/16 02:45:57;;;;;;;11.85;5.07;;;;;;;18.35;100.00;101573.78;5021191;28;20052;-69
2023/08/16 02:48:23;;;;;;;10.63;5.60;;;;;;;18.27;100.00;101569.47;5018816;28;20556;-69
2023/08/16 02:50:48;;;;;;;8.38;3.97;;;;;;;18.25;100.00;101568.84;5035236;28;20044;-69
2023/08/16 02:53:14;;;;;;;7.95;4.00;;;;;;;18.24;100.00;101574.28;5020803;28;20282;-69
2023/08/16 02:55:39;;;;;;;9.07;3.25;;;;;;;18.27;100.00;101566.03;5022520;28;22447;-69
2023/08/16 02:58:05;;;;;;;7.47;3.70;;;;;;;18.28;100.00;101572.91;5023784;28;20112;-69
2023/08/16 03:00:31;;;;;;;6.28;3.72;;;;;;;18.29;100.00;101585.03;5004203;28;20038;-69
2023/08/16 03:02:57;;;;;;;6.13;3.53;;;;;;;18.30;100.00;101581.41;5006759;28;20022;-69
2023/08/16 03:05:22;;;;;;;11.13;3.80;;;;;;;18.28;100.00;101578.16;5018548;28;20440;-69
2023/08/16 03:07:48;;;;;;;7.30;4.00;;;;;;;18.29;100.00;101585.84;5034885;28;20034;-69
2023/08/16 03:10:13;;;;;;;8.13;3.83;;;;;;;18.30;100.00;101586.66;5003710;28;20710;-70
2023/08/16 03:12:39;;;;;;;10.70;3.72;;;;;;;18.30;100.00;101586.66;5020643;28;20087;-69
2023/08/16 03:15:05;;;;;;;8.55;3.95;;;;;;;18.32;100.00;101591.72;5004313;28;20507;-69
2023/08/16 03:17:30;;;;;;;8.48;3.63;;;;;;;18.30;100.00;101589.28;4994978;28;20045;-69
2023/08/16 03:19:56;;;;;;;8.18;4.47;;;;;;;18.28;100.00;101599.16;5019419;28;20045;-70
2023/08/16 03:22:21;;;;;;;9.95;3.50;;;;;;;18.28;100.00;101602.59;5020926;28;20046;-70
2023/08/16 03:24:49;;;;;;;8.15;3.67;;;;;;;18.25;100.00;101594.28;5019101;28;20037;-69
2023/08/16 03:27:15;;;;;;;10.43;3.75;;;;;;;18.25;100.00;101595.09;5021435;28;20045;-69
2023/08/16 03:29:41;;;;;;;7.57;3.42;;;;;;;18.26;100.00;101596.72;5002224;28;20056;-69
2023/08/16 03:32:08;;;;;;;6.00;3.67;;;;;;;18.28;100.00;101588.66;5018382;28;20037;-69
2023/08/16 03:34:33;;;;;;;12.23;3.88;;;;;;;18.25;100.00;101581.97;5020447;28;20079;-69
2023/08/16 03:36:59;;;;;;;7.47;3.97;;;;;;;18.25;100.00;101581.97;5021197;28;20033;-69
2023/08/16 03:39:25;;;;;;;8.15;4.07;;;;;;;18.28;100.00;101584.22;5004966;28;20033;-69
2023/08/16 03:41:51;;;;;;;8.80;4.57;;;;;;;18.26;100.00;101591.47;5003536;28;20049;-69
2023/08/16 03:44:16;;;;;;;9.68;4.57;;;;;;;18.24;100.00;101595.28;5024209;28;20034;-69
2023/08/16 03:46:41;;;;;;;17.70;4.68;;;;;;;18.23;100.00;101591.03;5020225;28;20041;-69
2023/08/16 03:49:07;;;;;;;6.57;3.85;;;;;;;18.24;100.00;101597.91;5020925;28;20033;-69
2023/08/16 03:51:33;;;;;;;8.68;3.88;;;;;;;18.22;100.00;101600.72;5017444;28;20037;-69
2023/08/16 03:53:59;;;;;;;8.27;4.05;;;;;;;18.23;100.00;101606.78;5020068;28;20021;-69
2023/08/16 03:56:24;;;;;;;8.20;3.65;;;;;;;18.24;100.00;101605.78;5020743;28;20120;-69
2023/08/16 03:58:50;;;;;;;10.25;3.90;;;;;;;18.22;100.00;101600.72;5022921;28;20037;-69
2023/08/16 04:01:15;;;;;;;9.80;4.45;;;;;;;18.27;100.00;101610.66;5017909;28;20052;-69
2023/08/16 04:03:41;;;;;;;8.52;3.17;;;;;;;18.26;100.00;101616.91;5019785;28;21053;-69
2023/08/16 04:06:11;;;;;;;13.25;4.45;;;;;;;18.26;100.00;101614.28;5020533;28;20111;-69
2023/08/16 04:08:38;;;;;;;8.32;4.00;;;;;;;18.26;100.00;101622.97;5019459;28;20041;-69
2023/08/16 04:11:04;;;;;;;7.88;3.90;;;;;;;18.28;100.00;101622.78;5016070;28;20036;-69
2023/08/16 04:13:29;;;;;;;6.78;4.38;;;;;;;18.35;100.00;101625.50;5022486;28;20029;-69
2023/08/16 04:15:55;;;;;;;12.85;5.10;;;;;;;18.30;100.00;101628.66;5020372;28;20033;-69
2023/08/16 04:18:21;;;;;;;9.30;4.07;;;;;;;18.26;100.00;101624.78;5022223;28;20040;-69
2023/08/16 04:20:48;;;;;;;11.57;3.90;;;;;;;18.25;100.00;101628.41;5019148;28;20041;-69
2023/08/16 04:23:13;;;;;;;10.23;3.95;;;;;;;18.26;100.00;101625.59;5022956;28;20038;-69
2023/08/16 04:25:39;;;;;;;9.15;4.95;;;;;;;18.24;100.00;101621.53;5017991;28;20078;-69
2023/08/16 04:28:05;;;;;;;9.48;4.57;;;;;;;18.22;100.00;101621.72;5021924;28;20510;-69
2023/08/16 04:30:30;;;;;;;15.13;4.55;;;;;;;18.24;100.00;101626.78;5004464;28;20043;-69
2023/08/16 04:32:57;;;;;;;7.70;4.38;;;;;;;18.24;100.00;101621.53;5019586;28;20096;-69
2023/08/16 04:35:23;;;;;;;10.77;5.47;;;;;;;18.28;100.00;101625.41;5020379;28;20033;-70
2023/08/16 04:37:49;;;;;;;9.02;4.13;;;;;;;18.26;100.00;101619.53;5019055;28;20052;-69
2023/08/16 04:40:15;;;;;;;13.27;4.93;;;;;;;18.25;100.00;101615.28;5017941;28;20029;-70
2023/08/16 04:42:41;;;;;;;8.85;4.28;;;;;;;18.25;100.00;101613.47;5020752;28;20028;-69
2023/08/16 04:45:07;;;;;;;8.73;5.22;;;;;;;18.27;100.00;101614.09;5037232;28;20029;-71
2023/08/16 04:47:32;;;;;;;11.88;5.50;;;;;;;18.31;100.00;101619.78;5001087;28;20041;-69
2023/08/16 04:49:58;;;;;;;12.38;6.07;;;;;;;18.34;100.00;101621.22;5021125;28;20095;-69
2023/08/16 04:52:24;;;;;;;12.70;5.72;;;;;;;18.30;100.00;101626.03;5019912;28;20041;-69
2023/08/16 04:54:50;;;;;;;15.00;6.35;;;;;;;18.28;100.00;101625.41;5019313;28;20018;-69
2023/08/16 04:57:15;;;;;;;9.63;5.63;;;;;;;18.28;100.00;101631.47;5000586;28;20542;-69
2023/08/16 04:59:41;;;;;;;13.20;6.43;;;;;;;18.31;100.00;101630.28;5019033;28;20106;-69
2023/08/16 05:02:08;;;;;;;9.05;5.40;;;;;;;18.34;100.00;101635.16;5017648;28;20597;-69
2023/08/16 05:04:33;;;;;;;8.35;5.03;;;;;;;18.34;100.00;101631.72;5019025;28;20033;-69
2023/08/16 05:06:59;;;;;;;11.48;5.82;;;;;;;18.34;100.00;101626.47;5019204;28;20407;-69
2023/08/16 05:09:25;;;;;;;11.57;4.93;;;;;;;18.37;100.00;101626.91;5019468;28;20037;-69
2023/08/16 05:11:50;;;;;;;7.72;4.47;;;;;;;18.33;100.00;101620.41;5018199;28;20033;-69
2023/08/16 05:14:15;;;;;;;7.90;4.25;;;;;;;18.32;100.00;101617.97;5017692;28;20036;-69
2023/08/16 05:16:41;;;;;;;11.20;5.15;;;;;;;18.33;100.00;101619.59;5002515;28;20507;-69
2023/08/16 05:19:07;;;;;;;12.25;6.05;;;;;;;18.31;100.00;101619.78;5021454;28;20563;-69
2023/08/16 05:21:33;;;;;;;7.25;4.45;;;;;;;18.33;100.00;101616.97;5016715;28;20470;-69
2023/08/16 05:23:59;;;;;;;7.50;4.20;;;;;;;18.35;100.00;101621.03;5019981;28;20025;-69
2023/08/16 05:26:24;;;;;;;9.23;4.03;;;;;;;18.33;100.00;101616.97;5022271;28;20564;-69
2023/08/16 05:28:50;;;;;;;7.07;3.55;;;;;;;18.32;100.00;101621.41;5018513;28;20038;-69
2023/08/16 05:31:15;;;;;;;7.28;3.47;;;;;;;18.33;100.00;101630.91;5019050;28;20045;-69
2023/08/16 05:33:41;;;;;;;4.60;3.22;;;;;;;18.35;100.00;101623.66;5021718;28;20037;-69
2023/08/16 05:36:07;;;;;;;7.13;3.60;;;;;;;18.35;100.00;101620.22;5019641;28;20060;-70
2023/08/16 05:38:33;;;;;;;6.47;3.67;;;;;;;18.41;100.00;101624.72;5020350;28;20037;-69
2023/08/16 05:41:00;;;;;;;11.63;3.55;;;;;;;18.44;100.00;101629.59;5016973;28;20055;-69
2023/08/16 05:43:26;;;;;;;10.52;3.40;;;;;;;18.46;100.00;101628.41;5017864;28;20064;-69
2023/08/16 05:45:51;;;;;;;8.75;3.40;;;;;;;18.53;100.00;101630.28;5021733;28;20049;-69
2023/08/16 05:48:17;;;;;;;9.40;3.35;;;;;;;18.61;100.00;101628.34;5019002;28;20038;-69
2023/08/16 05:50:42;;;;;;;11.20;4.28;;;;;;;18.62;100.00;101629.16;5017083;28;20049;-69
2023/08/16 05:53:08;;;;;;;5.00;3.20;;;;;;;18.68;100.00;101638.88;5020695;28;20029;-69
2023/08/16 05:55:34;;;;;;;9.05;3.63;;;;;;;18.68;100.00;101633.63;5021723;28;20041;-69
2023/08/16 05:58:00;;;;;;;5.20;2.85;;;;;;;18.66;100.00;101639.06;5008512;28;20489;-69
2023/08/16 06:00:25;;;;;;;7.00;2.90;;;;;;;18.77;100.00;101645.63;5025743;28;20053;-70
2023/08/16 06:02:52;;;;;;;7.90;3.00;;;;;;;18.78;100.00;101646.44;5024826;28;20076;-69
2023/08/16 06:05:18;;;;;;;7.95;3.05;;;;;;;18.78;100.00;101642.03;5022763;28;20057;-70
2023/08/16 06:07:44;;;;;;;5.30;2.42;;;;;;;18.84;100.00;101643.09;5024515;28;20515;-69
2023/08/16 06:10:10;;;;;;;6.95;2.70;;;;;;;18.94;100.00;101645.41;5023535;28;20036;-70
2023/08/16 06:12:35;;;;;;;6.90;2.78;;;;;;;18.95;100.00;101658.34;5021882;28;20407;-69
2023/08/16 06:15:00;;;;;;;4.88;2.67;;;;;;;18.99;100.00;101656.97;5022198;28;20088;-69
2023/08/16 06:17:26;;;;;;;6.10;2.80;;;;;;;19.04;100.00;101654.59;5024373;28;20037;-69
2023/08/16 06:19:51;;;;;;;4.22;2.55;;;;;;;19.12;100.00;101653.63;5022054;28;20033;-69
2023/08/16 06:22:17;;;;;;;9.13;3.03;;;;;;;19.18;100.00;101654.69;5021511;28;20407;-70
2023/08/16 06:24:42;;;;;;;9.07;2.88;;;;;;;19.24;100.00;101662.59;5025684;28;20033;-69
2023/08/16 06:27:11;;;;;;;8.70;3.13;;;;;;;19.33;99.69;101662.47;5024362;28;21194;-69
2023/08/16 06:29:36;;;;;;;5.97;2.95;;;;;;;19.39;98.44;101659.03;5023172;28;20033;-69
2023/08/16 06:32:03;;;;;;;3.42;2.22;;;;;;;19.51;98.03;101667.19;5021062;28;22896;-69
2023/08/16 06:34:29;;;;;;;7.82;2.17;;;;;;;19.64;97.28;101651.47;5022419;28;20040;-69
2023/08/16 06:36:54;;;;;;;6.20;2.90;;;;;;;19.69;96.98;101664.06;5019962;28;20033;-69
2023/08/16 06:39:20;;;;;;;26.85;12.25;;;;;;;19.77;96.21;101656.03;5023244;28;20059;-69
2023/08/16 06:41:46;;;;;;;27.33;14.80;;;;;;;19.91;96.38;101657.72;5022287;28;20436;-69
2023/08/16 06:44:11;;;;;;;11.45;4.05;;;;;;;20.00;95.38;101659.16;5016995;28;20042;-70
2023/08/16 06:46:37;;;;;;;10.27;3.67;;;;;;;20.12;94.30;101661.22;5021008;28;20048;-69
2023/08/16 06:49:03;;;;;;;7.93;4.25;;;;;;;20.21;94.51;101657.34;5017216;28;20121;-69
2023/08/16 06:51:28;;;;;;;8.70;3.20;;;;;;;20.40;94.27;101656.59;5006994;28;20030;-69
2023/08/16 06:53:54;;;;;;;4.78;2.70;;;;;;;20.45;94.00;101652.56;5021445;28;20502;-69
2023/08/16 06:56:19;;;;;;;7.80;3.95;;;;;;;20.46;93.32;101651.56;5017454;28;20053;-69
2023/08/16 06:58:45;;;;;;;6.45;3.17;;;;;;;20.36;93.08;101644.03;5023817;28;20033;-69
2023/08/16 07:01:11;;;;;;;4.80;2.58;;;;;;;20.37;93.05;101651.72;5018530;28;20587;-70
2023/08/16 07:03:37;;;;;;;4.55;2.30;;;;;;;20.59;92.44;101656.84;5021151;28;20089;-69
2023/08/16 07:06:02;;;;;;;6.03;3.28;;;;;;;20.75;91.12;101659.06;5022574;28;20041;-70
2023/08/16 07:08:28;;;;;;;5.80;2.95;;;;;;;20.86;89.21;101657.66;5020553;28;20025;-69
2023/08/16 07:10:54;;;;;;;9.23;2.90;;;;;;;20.95;87.71;101653.81;5018914;28;20559;-69
2023/08/16 07:13:19;;;;;;;8.27;2.88;;;;;;;21.18;87.56;101652.56;5020363;28;20033;-69
2023/08/16 07:15:45;;;;;;;7.20;3.10;;;;;;;21.82;85.37;101661.53;5022906;28;20120;-70
2023/08/16 07:18:11;;;;;;;6.85;3.20;;;;;;;22.02;82.65;101661.44;5006824;28;20068;-69
2023/08/16 07:20:36;;;;;;;10.20;3.33;;;;;;;21.79;84.28;101659.28;5010912;28;20033;-69
2023/08/16 07:23:02;;;;;;;10.75;3.75;;;;;;;21.60;85.51;101658.34;5021435;28;20041;-69
2023/08/16 07:25:28;;;;;;;9.88;4.88;;;;;;;21.40;86.15;101671.59;5023088;28;20125;-70
2023/08/16 07:27:54;;;;;;;19.70;4.97;;;;;;;21.20;87.50;101672.44;5020822;28;20075;-70
2023/08/16 07:30:19;;;;;;;12.95;5.18;;;;;;;21.04;87.25;101680.78;5019638;28;20025;-70
2023/08/16 07:32:45;;;;;;;9.30;4.65;;;;;;;20.94;88.14;101681.16;5021501;28;20373;-70
2023/08/16 07:35:10;;;;;;;19.73;5.20;;;;;;;20.78;89.92;101678.97;5022197;28;20036;-71
2023/08/16 07:37:37;;;;;;;11.77;5.03;;;;;;;20.67;91.27;101679.56;5024729;28;20040;-70
2023/08/16 07:40:04;;;;;;;13.18;5.82;;;;;;;20.71;90.67;101681.59;5022134;28;20037;-70
2023/08/16 07:42:30;;;;;;;15.18;5.88;;;;;;;20.63;90.34;101675.72;5020394;28;20091;-70
2023/08/16 07:44:57;;;;;;;12.05;4.47;;;;;;;20.65;90.36;101681.59;5022209;28;20029;-70
2023/08/16 07:47:22;;;;;;;16.00;5.13;;;;;;;20.62;91.93;101682.78;5020810;28;20641;-70
2023/08/16 07:49:48;;;;;;;15.38;4.90;;;;;;;20.75;91.33;101689.91;5024419;28;20049;-70
2023/08/16 07:52:13;;;;;;;10.18;4.93;;;;;;;20.86;91.43;101693.75;5022532;28;20029;-70
2023/08/16 07:54:39;;;;;;;12.38;4.85;;;;;;;20.93;89.56;101692.75;5020782;28;20499;-70
2023/08/16 07:57:04;;;;;;;14.50;4.63;;;;;;;20.85;89.25;101700.03;5019647;28;20025;-70
2023/08/16 07:59:30;;;;;;;9.27;5.22;;;;;;;20.75;90.28;101706.50;5020835;28;20039;-70
2023/08/16 08:01:56;;;;;;;11.02;5.35;;;;;;;20.82;89.49;101703.09;5034682;28;20040;-69
2023/08/16 08:04:22;;;;;;;9.23;4.65;;;;;;;20.91;89.85;101707.97;5019561;28;20056;-70
2023/08/16 08:06:48;;;;;;;11.88;4.88;;;;;;;21.00;89.17;101705.91;5018023;28;20098;-70
2023/08/16 08:09:13;;;;;;;8.77;5.10;;;;;;;21.04;89.84;101711.59;5015411;28;20033;-70
2023/08/16 08:11:39;;;;;;;13.77;5.93;;;;;;;20.92;88.91;101708.75;5022245;28;20798;-70
2023/08/16 08:14:05;;;;;;;12.38;4.85;;;;;;;21.08;89.00;101715.44;5020381;28;20045;-69
2023/08/16 08:16:31;;;;;;;15.90;5.78;;;;;;;21.00;90.05;101716.44;5017983;28;20041;-69
2023/08/16 08:18:56;;;;;;;13.90;5.40;;;;;;;21.36;89.75;101718.66;5017092;28;20037;-70
2023/08/16 08:21:22;;;;;;;9.85;5.90;;;;;;;21.93;86.34;101711.03;5021595;28;20041;-70
2023/08/16 08:23:47;;;;;;;10.48;4.93;;;;;;;22.53;84.45;101702.81;5019817;28;20087;-70
2023/08/16 08:26:13;;;;;;;15.38;4.60;;;;;;;23.20;82.28;101710.22;5015317;28;20041;-69
2023/08/16 08:28:39;;;;;;;9.88;5.30;;;;;;;23.39;78.31;101705.75;5033523;28;20076;-70
2023/08/16 08:31:04;;;;;;;11.20;4.60;;;;;;;23.71;77.06;101700.31;5018498;28;20068;-70
2023/08/16 08:33:30;;;;;;;9.27;4.85;;;;;;;24.14;76.33;101694.09;5021647;28;20025;-70
2023/08/16 08:35:58;;;;;;;9.23;4.60;;;;;;;23.96;74.90;101699.41;5019739;28;20063;-70
2023/08/16 08:38:24;;;;;;;13.80;5.97;;;;;;;24.25;74.73;101698.63;5016725;28;20494;-70
2023/08/16 08:40:59;;;;;;;11.30;4.45;;;;;;;24.12;75.15;101698.00;5015449;28;20042;-69
2023/08/16 08:43:33;;;;;;;7.20;4.38;;;;;;;24.36;73.38;101694.41;5020694;28;20064;-69
2023/08/16 08:45:59;;;;;;;8.90;4.25;;;;;;;24.45;73.03;101702.84;5021817;28;20025;-70
2023/08/16 08:48:26;;;;;;;9.80;4.32;;;;;;;24.37;73.22;101706.59;5019321;28;20629;-69
2023/08/16 08:50:53;;;;;;;9.07;4.78;;;;;;;23.97;75.03;101711.66;5020011;28;20361;-70
2023/08/16 08:53:23;;;;;;;9.82;5.03;;;;;;;23.87;75.10;101714.81;5020104;28;20048;-70
2023/08/16 08:55:54;;;;;;;9.98;4.47;;;;;;;23.90;76.93;101711.72;5018756;28;20099;-70
2023/08/16 08:58:20;;;;;;;7.60;4.43;;;;;;;24.31;76.08;101715.44;5021253;28;20046;-71
2023/08/16 09:00:48;;;;;;;12.43;6.00;;;;;;;23.99;74.76;101709.56;5015269;28;20041;-71
2023/08/16 09:03:17;;;;;;;8.70;4.93;;;;;;;23.79;75.24;101705.34;5020986;28;20068;-70
2023/08/16 09:05:45;;;;;;;8.50;4.88;;;;;;;23.62;77.76;101714.88;5004517;28;20034;-70
2023/08/16 09:08:13;;;;;;;8.73;5.25;;;;;;;23.60;78.35;101711.63;5016901;28;20041;-69
2023/08/16 09:10:39;;;;;;;9.27;5.38;;;;;;;23.37;77.34;101713.09;5018406;28;20040;-69
2023/08/16 09:13:06;;;;;;;10.73;5.05;;;;;;;23.36;78.40;101718.59;5018988;28;20120;-70
2023/08/16 09:15:32;;;;;;;9.88;5.32;;;;;;;23.26;78.27;101722.59;5017596;28;20056;-70
2023/08/16 09:18:12;;;;;;;8.60;4.90;;;;;;;23.12;79.47;101719.22;5019139;28;20492;-69
2023/08/16 09:20:39;;;;;;;6.57;5.60;;;;;;;23.01;79.11;101717.28;5036873;22;20052;-68
2023/08/16 09:23:05;;;;;;;12.55;5.82;;;;;;;23.52;76.70;101710.91;5022992;28;20604;-67
2023/08/16 09:25:31;;;;;;;9.50;5.10;;;;;;;23.81;76.43;101713.03;5009829;28;20135;-68
2023/08/16 09:27:57;;;;;;;12.95;5.10;;;;;;;23.73;77.35;101714.13;5042129;28;20407;-70
2023/08/16 09:30:26;;;;;;;14.13;7.00;;;;;;;23.19;78.10;101724.47;5028065;28;20103;-68
2023/08/16 09:32:55;;;;;;;9.68;4.95;;;;;;;23.15;78.44;101720.66;5023725;28;20140;-68
2023/08/16 09:35:32;;;;;;;11.60;6.22;;;;;;;23.15;78.28;101712.72;5020160;28;20510;-68
2023/08/16 09:37:58;;;;;;;13.15;6.35;;;;;;;23.10;78.67;101708.06;5029501;28;20052;-68
2023/08/16 09:40:24;;;;;;;12.95;7.05;;;;;;;23.11;78.91;101709.69;5023483;28;20040;-68
2023/08/16 09:42:50;;;;;;;14.00;8.23;;;;;;;23.22;78.36;101707.34;5025440;28;20615;-68
2023/08/16 09:45:15;;;;;;;15.38;8.45;;;;;;;22.95;78.67;101704.91;5025076;28;20189;-68
2023/08/16 09:47:44;;;;;;;14.43;7.03;;;;;;;22.86;79.42;101701.72;5021047;28;20057;-68
2023/08/16 09:50:11;;;;;;;10.75;6.53;;;;;;;23.04;79.80;101711.59;5021127;28;20073;-68
2023/08/16 09:52:37;;;;;;;14.13;7.40;;;;;;;22.88;79.93;101712.09;5026014;28;20025;-68
2023/08/16 09:55:03;;;;;;;11.00;5.88;;;;;;;22.84;80.58;101708.28;5028287;28;20060;-68
2023/08/16 09:57:30;;;;;;;12.35;6.38;;;;;;;22.72;79.41;101711.63;5043152;28;20037;-68
2023/08/16 09:59:55;;;;;;;11.68;5.97;;;;;;;22.76;81.57;101706.72;5024910;28;20030;-68
2023/08/16 10:02:21;;;;;;;12.00;5.13;;;;;;;22.82;80.94;101705.84;5021358;28;20427;-68
2023/08/16 10:04:48;;;;;;;16.40;6.28;;;;;;;22.85;79.41;101710.69;5023459;28;20132;-68
2023/08/16 10:07:15;;;;;;;11.35;5.15;;;;;;;22.62;79.98;101711.28;5023901;28;20180;-68
2023/08/16 10:09:44;;;;;;;11.80;5.55;;;;;;;22.57;81.07;101705.03;5029521;28;20047;-68
2023/08/16 10:12:10;;;;;;;8.55;5.45;;;;;;;22.59;81.33;101705.63;5024044;28;20127;-68
2023/08/16 10:14:37;;;;;;;13.98;4.88;;;;;;;22.63;81.27;101691.75;5021532;28;20029;-68
2023/08/16 10:17:06;;;;;;;8.80;4.28;;;;;;;22.63;80.84;101707.59;5023936;28;20068;-68
2023/08/16 10:19:33;;;;;;;8.23;3.78;;;;;;;22.67;79.29;101702.72;5023030;28;20033;-67
2023/08/16 10:22:00;;;;;;;5.43;3.30;;;;;;;22.56;79.60;101701.56;5022402;28;20433;-68
2023/08/16 10:24:33;;;;;;;12.27;4.45;;;;;;;22.65;80.67;101694.97;5022620;28;20072;-68
2023/08/16 10:27:03;;;;;;;8.18;4.85;;;;;;;22.44;79.10;101706.72;5007008;28;21024;-68
2023/08/16 10:29:35;;;;;;;12.82;5.03;;;;;;;22.21;81.14;101712.53;5006254;28;20041;-68
2023/08/16 10:32:07;;;;;;;7.63;4.72;;;;;;;22.31;80.74;101715.53;5024263;28;20038;-68
2023/08/16 10:34:34;;;;;;;11.05;4.93;;;;;;;22.03;82.72;101715.03;5010101;28;20037;-68
2023/08/16 10:37:00;;;;;;;12.10;4.72;;;;;;;21.90;84.36;101718.53;5021558;28;20034;-68
2023/08/16 10:39:29;;;;;;;5.32;3.40;;;;;;;21.99;84.82;101711.22;5026678;28;20116;-68
2023/08/16 10:42:07;;;;;;;9.82;4.22;;;;;;;21.92;85.64;101712.03;5021970;28;20038;-68
2023/08/16 10:44:34;;;;;;;10.13;4.43;;;;;;;21.95;85.91;101711.63;5022212;28;20088;-68
2023/08/16 10:46:59;;;;;;;8.60;4.75;;;;;;;21.93;85.62;101708.38;5022244;28;20064;-68
2023/08/16 10:49:35;;;;;;;8.05;4.28;;;;;;;21.86;86.05;101718.16;5026023;28;20447;-68
2023/08/16 10:52:01;;;;;;;11.90;5.50;;;;;;;21.85;87.45;101711.28;5020219;28;20424;-68
2023/08/16 10:54:34;;;;;;;8.90;5.03;;;;;;;21.83;88.36;101717.75;5027397;28;20033;-68
2023/08/16 10:57:04;;;;;;;;;;;;;;;21.79;88.02;101725.28;5023089;28;20037;-68
2023/08/16 10:59:40;;;;;;;7.90;4.53;;;;;;;21.81;87.22;101720.59;5007331;28;20433;-68
2023/08/16 11:02:15;;;;;;;10.82;5.60;;;;;;;21.66;88.41;101717.41;5024314;28;20140;-68
2023/08/16 11:04:42;;;;;;;8.00;4.07;;;;;;;21.64;88.93;101714.16;5023657;28;20052;-68
2023/08/16 11:07:09;;;;;;;11.57;4.80;;;;;;;21.81;88.50;101710.03;5028294;28;20255;-68
2023/08/16 11:09:37;;;;;;;6.70;4.47;;;;;;;21.77;87.24;101709.66;5021058;28;20061;-68
2023/08/16 11:12:03;;;;;;;9.45;4.43;;;;;;;21.78;86.24;101716.56;5022821;28;20399;-67
2023/08/16 11:14:29;;;;;;;7.32;4.18;;;;;;;21.90;86.44;101713.25;5024751;28;20036;-69
2023/08/16 11:16:55;;;;;;;7.97;4.95;;;;;;;21.85;87.82;101716.53;5024561;28;20038;-68